sensor_id;sensor_type;location;lat;lon;timestamp;pressure;altitude;pressure_sealevel;temperature;humidity
6567;BME280;3317;43.994;22.878;2023-02-19T00:01:39;101109.41;;;13.15;46.34
6567;BME280;3317;43.994;22.878;2023-02-19T00:04:08;101114.16;;;13.13;46.44
6567;BME280;3317;43.994;22.878;2023-02-19T00:06:36;101120.59;;;13.12;46.57
6567;BME280;3317;43.994;22.878;2023-02-19T00:09:03;101091.97;;;12.99;46.62
6567;BME280;3317;43.994;22.878;2023-02-19T00:11:33;101110.75;;;13.10;46.39
6567;BME280;3317;43.994;22.878;2023-02-19T00:14:01;101097.09;;;13.02;46.69
6567;BME280;3317;43.994;22.878;2023-02-19T00:16:31;101116.50;;;13.07;46.47
6567;BME280;3317;43.994;22.878;2023-02-19T00:19:00;101118.22;;;13.08;46.58
6567;BME280;3317;43.994;22.878;2023-02-19T00:21:28;101118.22;;;13.08;46.94
6567;BME280;3317;43.994;22.878;2023-02-19T00:23:57;101122.94;;;13.06;46.99
6567;BME280;3317;43.994;22.878;2023-02-19T00:26:24;101127.38;;;13.07;46.96
6567;BME280;3317;43.994;22.878;2023-02-19T00:28:52;101124.81;;;13.06;46.90
6567;BME280;3317;43.994;22.878;2023-02-19T00:31:21;101123.66;;;13.08;46.95
6567;BME280;3317;43.994;22.878;2023-02-19T00:33:51;101109.63;;;12.95;47.12
6567;BME280;3317;43.994;22.878;2023-02-19T00:36:19;101128.03;;;13.01;47.18
6567;BME280;3317;43.994;22.878;2023-02-19T00:38:47;101128.16;;;13.00;47.13
6567;BME280;3317;43.994;22.878;2023-02-19T00:41:15;101120.81;;;12.92;47.16
6567;BME280;3317;43.994;22.878;2023-02-19T00:43:46;101126.44;;;12.90;46.91
6567;BME280;3317;43.994;22.878;2023-02-19T00:46:14;101135.66;;;12.98;47.13
6567;BME280;3317;43.994;22.878;2023-02-19T00:48:41;101145.69;;;12.97;46.99
6567;BME280;3317;43.994;22.878;2023-02-19T00:51:10;101140.94;;;12.99;47.14
6567;BME280;3317;43.994;22.878;2023-02-19T00:53:37;101141.28;;;12.96;46.87
6567;BME280;3317;43.994;22.878;2023-02-19T00:56:04;101141.97;;;12.98;46.99
6567;BME280;3317;43.994;22.878;2023-02-19T00:58:32;101133.59;;;12.91;46.86
6567;BME280;3317;43.994;22.878;2023-02-19T01:00:59;101139.56;;;12.95;46.86
6567;BME280;3317;43.994;22.878;2023-02-19T01:03:26;101145.84;;;12.95;47.03
6567;BME280;3317;43.994;22.878;2023-02-19T01:05:53;101132.09;;;12.97;46.53
6567;BME280;3317;43.994;22.878;2023-02-19T01:08:22;101133.25;;;12.94;46.80
6567;BME280;3317;43.994;22.878;2023-02-19T01:10:49;101130.38;;;12.96;46.50
6567;BME280;3317;43.994;22.878;2023-02-19T01:13:16;101081.06;;;12.64;46.37
6567;BME280;3317;43.994;22.878;2023-02-19T01:15:43;101128.13;;;12.91;46.67
6567;BME280;3317;43.994;22.878;2023-02-19T01:18:11;101077.13;;;12.67;46.31
6567;BME280;3317;43.994;22.878;2023-02-19T01:20:38;101115.69;;;12.89;46.24
6567;BME280;3317;43.994;22.878;2023-02-19T01:23:06;101110.13;;;12.90;46.24
6567;BME280;3317;43.994;22.878;2023-02-19T01:25:36;101117.47;;;12.98;46.01
6567;BME280;3317;43.994;22.878;2023-02-19T01:28:04;101069.69;;;12.69;46.01
6567;BME280;3317;43.994;22.878;2023-02-19T01:30:33;101125.97;;;12.95;45.89
6567;BME280;3317;43.994;22.878;2023-02-19T01:33:01;101118.38;;;13.07;46.02
6567;BME280;3317;43.994;22.878;2023-02-19T01:35:28;101108.66;;;13.04;46.01
6567;BME280;3317;43.994;22.878;2023-02-19T01:37:55;101120.22;;;13.06;45.57
6567;BME280;3317;43.994;22.878;2023-02-19T01:40:22;101111.91;;;13.08;45.74
6567;BME280;3317;43.994;22.878;2023-02-19T01:42:50;101118.22;;;13.08;45.62
6567;BME280;3317;43.994;22.878;2023-02-19T01:45:27;101131.66;;;13.10;45.64
6567;BME280;3317;43.994;22.878;2023-02-19T01:48:06;101127.75;;;13.13;45.36
6567;BME280;3317;43.994;22.878;2023-02-19T01:50:38;101127.91;;;13.11;45.63
6567;BME280;3317;43.994;22.878;2023-02-19T01:53:08;101124.72;;;13.16;45.40
6567;BME280;3317;43.994;22.878;2023-02-19T01:55:38;101125.72;;;13.15;45.57
6567;BME280;3317;43.994;22.878;2023-02-19T01:58:07;101123.53;;;13.18;45.49
6567;BME280;3317;43.994;22.878;2023-02-19T02:00:36;101104.75;;;13.07;45.48
6567;BME280;3317;43.994;22.878;2023-02-19T02:03:03;101075.78;;;12.89;45.25
6567;BME280;3317;43.994;22.878;2023-02-19T02:05:44;101112.84;;;13.25;45.26
6567;BME280;3317;43.994;22.878;2023-02-19T02:08:14;101125.94;;;13.21;45.56
6567;BME280;3317;43.994;22.878;2023-02-19T02:10:59;101113.34;;;13.20;45.64
6567;BME280;3317;43.994;22.878;2023-02-19T02:13:28;101108.03;;;13.19;45.56
6567;BME280;3317;43.994;22.878;2023-02-19T02:16:06;101111.31;;;13.22;45.41
6567;BME280;3317;43.994;22.878;2023-02-19T02:18:42;101064.72;;;12.91;45.70
6567;BME280;3317;43.994;22.878;2023-02-19T02:21:40;101115.03;;;13.21;45.62
6567;BME280;3317;43.994;22.878;2023-02-19T02:24:29;101108.03;;;13.19;46.27
6567;BME280;3317;43.994;22.878;2023-02-19T02:27:40;101111.78;;;13.18;46.21
6567;BME280;3317;43.994;22.878;2023-02-19T02:30:28;101117.56;;;13.15;46.39
6567;BME280;3317;43.994;22.878;2023-02-19T02:33:03;101091.63;;;13.02;46.63
6567;BME280;3317;43.994;22.878;2023-02-19T02:35:36;101111.44;;;13.13;46.81
6567;BME280;3317;43.994;22.878;2023-02-19T02:38:07;101113.47;;;13.10;46.81
6567;BME280;3317;43.994;22.878;2023-02-19T02:40:40;101118.22;;;13.08;46.67
6567;BME280;3317;43.994;22.878;2023-02-19T02:43:08;101134.03;;;13.13;46.66
6567;BME280;3317;43.994;22.878;2023-02-19T02:45:36;101147.81;;;13.12;46.59
6567;BME280;3317;43.994;22.878;2023-02-19T02:48:22;101144.78;;;13.15;46.88
6567;BME280;3317;43.994;22.878;2023-02-19T02:50:55;101148.84;;;13.10;47.07
6567;BME280;3317;43.994;22.878;2023-02-19T02:53:27;101155.97;;;13.12;46.80
6567;BME280;3317;43.994;22.878;2023-02-19T02:56:13;101162.13;;;13.14;46.73
6567;BME280;3317;43.994;22.878;2023-02-19T02:58:41;101171.13;;;13.14;46.80
6567;BME280;3317;43.994;22.878;2023-02-19T03:01:14;101177.44;;;13.15;47.04
6567;BME280;3317;43.994;22.878;2023-02-19T03:04:03;101180.28;;;13.13;47.13
6567;BME280;3317;43.994;22.878;2023-02-19T03:06:33;101181.53;;;13.19;46.78
6567;BME280;3317;43.994;22.878;2023-02-19T03:09:08;101188.16;;;13.16;47.12
6567;BME280;3317;43.994;22.878;2023-02-19T03:11:38;101197.84;;;13.19;47.29
6567;BME280;3317;43.994;22.878;2023-02-19T03:14:29;101192.81;;;13.24;47.13
6567;BME280;3317;43.994;22.878;2023-02-19T03:17:21;101194.66;;;13.23;47.25
6567;BME280;3317;43.994;22.878;2023-02-19T03:20:09;101196.31;;;13.16;47.69
6567;BME280;3317;43.994;22.878;2023-02-19T03:22:39;101191.84;;;13.07;47.79
6567;BME280;3317;43.994;22.878;2023-02-19T03:25:10;101209.22;;;13.14;47.80
6567;BME280;3317;43.994;22.878;2023-02-19T03:27:57;101199.66;;;13.10;48.45
6567;BME280;3317;43.994;22.878;2023-02-19T03:30:29;101212.94;;;13.13;48.25
6567;BME280;3317;43.994;22.878;2023-02-19T03:33:01;101204.78;;;13.13;48.57
6567;BME280;3317;43.994;22.878;2023-02-19T03:35:36;101219.88;;;13.07;48.62
6567;BME280;3317;43.994;22.878;2023-02-19T03:38:09;101216.66;;;13.04;48.76
6567;BME280;3317;43.994;22.878;2023-02-19T03:40:50;101218.56;;;13.12;49.07
6567;BME280;3317;43.994;22.878;2023-02-19T03:43:22;101214.75;;;13.04;48.99
6567;BME280;3317;43.994;22.878;2023-02-19T03:45:55;101229.22;;;13.05;49.25
6567;BME280;3317;43.994;22.878;2023-02-19T03:48:32;101228.69;;;13.01;49.76
6567;BME280;3317;43.994;22.878;2023-02-19T03:51:10;101236.84;;;13.01;49.75
6567;BME280;3317;43.994;22.878;2023-02-19T03:53:47;101238.94;;;13.07;49.72
6567;BME280;3317;43.994;22.878;2023-02-19T03:56:18;101228.22;;;13.06;49.87
6567;BME280;3317;43.994;22.878;2023-02-19T03:58:53;101239.09;;;13.06;49.75
6567;BME280;3317;43.994;22.878;2023-02-19T04:01:26;101247.72;;;13.01;49.97
6567;BME280;3317;43.994;22.878;2023-02-19T04:03:59;101244.53;;;13.06;49.89
6567;BME280;3317;43.994;22.878;2023-02-19T04:06:30;101247.59;;;13.03;49.87
6567;BME280;3317;43.994;22.878;2023-02-19T04:09:01;101241.94;;;12.96;49.50
6567;BME280;3317;43.994;22.878;2023-02-19T04:11:30;101251.47;;;13.00;49.23
6567;BME280;3317;43.994;22.878;2023-02-19T04:14:02;101242.44;;;13.00;49.46
6567;BME280;3317;43.994;22.878;2023-02-19T04:16:33;101248.19;;;12.96;49.50
6567;BME280;3317;43.994;22.878;2023-02-19T04:19:07;101244.94;;;12.93;49.51
6567;BME280;3317;43.994;22.878;2023-02-19T04:21:37;101237.56;;;12.85;49.79
6567;BME280;3317;43.994;22.878;2023-02-19T04:24:07;101238.34;;;12.77;49.85
6567;BME280;3317;43.994;22.878;2023-02-19T04:26:35;101243.88;;;12.86;49.83
6567;BME280;3317;43.994;22.878;2023-02-19T04:29:03;101236.72;;;12.85;49.74
6567;BME280;3317;43.994;22.878;2023-02-19T04:31:31;101255.66;;;12.94;49.99
6567;BME280;3317;43.994;22.878;2023-02-19T04:34:00;101246.72;;;12.84;50.30
6567;BME280;3317;43.994;22.878;2023-02-19T04:36:29;101247.91;;;12.81;50.44
6567;BME280;3317;43.994;22.878;2023-02-19T04:38:56;101229.16;;;12.78;50.49
6567;BME280;3317;43.994;22.878;2023-02-19T04:41:24;101219.53;;;12.66;50.98
6567;BME280;3317;43.994;22.878;2023-02-19T04:43:50;101231.06;;;12.78;51.04
6567;BME280;3317;43.994;22.878;2023-02-19T04:46:17;101222.72;;;12.79;50.78
6567;BME280;3317;43.994;22.878;2023-02-19T04:48:44;101229.50;;;12.75;51.09
6567;BME280;3317;43.994;22.878;2023-02-19T04:51:11;101223.69;;;12.70;51.35
6567;BME280;3317;43.994;22.878;2023-02-19T04:53:39;101225.06;;;12.74;51.07
6567;BME280;3317;43.994;22.878;2023-02-19T04:56:07;101225.06;;;12.74;51.09
6567;BME280;3317;43.994;22.878;2023-02-19T04:58:34;101222.81;;;12.70;51.19
6567;BME280;3317;43.994;22.878;2023-02-19T05:01:02;101213.28;;;12.65;51.10
6567;BME280;3317;43.994;22.878;2023-02-19T05:03:29;101222.97;;;12.68;50.82
6567;BME280;3317;43.994;22.878;2023-02-19T05:05:57;101234.16;;;12.65;51.06
6567;BME280;3317;43.994;22.878;2023-02-19T05:08:24;101242.31;;;12.65;50.89
6567;BME280;3317;43.994;22.878;2023-02-19T05:10:56;101253.19;;;12.65;51.05
6567;BME280;3317;43.994;22.878;2023-02-19T05:13:23;101241.47;;;12.64;50.96
6567;BME280;3317;43.994;22.878;2023-02-19T05:15:54;101254.34;;;12.62;50.86
6567;BME280;3317;43.994;22.878;2023-02-19T05:18:21;101252.13;;;12.58;51.00
6567;BME280;3317;43.994;22.878;2023-02-19T05:20:48;101254.66;;;12.59;51.36
6567;BME280;3317;43.994;22.878;2023-02-19T05:23:15;101253.41;;;12.53;51.53
6567;BME280;3317;43.994;22.878;2023-02-19T05:25:42;101267.69;;;12.56;51.24
6567;BME280;3317;43.994;22.878;2023-02-19T05:28:11;101260.41;;;12.56;51.19
6567;BME280;3317;43.994;22.878;2023-02-19T05:30:44;101255.44;;;12.51;51.62
6567;BME280;3317;43.994;22.878;2023-02-19T05:33:12;101269.56;;;12.55;51.31
6567;BME280;3317;43.994;22.878;2023-02-19T05:35:40;101260.56;;;12.54;51.37
6567;BME280;3317;43.994;22.878;2023-02-19T05:38:08;101251.91;;;12.41;51.59
6567;BME280;3317;43.994;22.878;2023-02-19T05:40:36;101263.22;;;12.46;51.64
6567;BME280;3317;43.994;22.878;2023-02-19T05:43:03;101267.31;;;12.50;51.29
6567;BME280;3317;43.994;22.878;2023-02-19T05:45:32;101259.78;;;12.44;51.64
6567;BME280;3317;43.994;22.878;2023-02-19T05:47:59;101263.91;;;12.48;51.49
6567;BME280;3317;43.994;22.878;2023-02-19T05:50:26;101271.28;;;12.56;51.57
6567;BME280;3317;43.994;22.878;2023-02-19T05:52:53;101274.47;;;12.51;51.87
6567;BME280;3317;43.994;22.878;2023-02-19T05:55:20;101282.31;;;12.54;51.99
6567;BME280;3317;43.994;22.878;2023-02-19T05:57:47;101283.63;;;12.50;52.19
6567;BME280;3317;43.994;22.878;2023-02-19T06:00:16;101292.16;;;12.56;51.79
6567;BME280;3317;43.994;22.878;2023-02-19T06:02:45;101293.03;;;12.56;51.87
6567;BME280;3317;43.994;22.878;2023-02-19T06:05:13;101300.75;;;12.61;52.22
6567;BME280;3317;43.994;22.878;2023-02-19T06:07:40;101301.56;;;12.61;52.28
6567;BME280;3317;43.994;22.878;2023-02-19T06:10:08;101303.00;;;12.65;51.78
6567;BME280;3317;43.994;22.878;2023-02-19T06:12:35;101317.69;;;12.73;51.71
6567;BME280;3317;43.994;22.878;2023-02-19T06:15:03;101309.22;;;12.76;52.05
6567;BME280;3317;43.994;22.878;2023-02-19T06:17:31;101311.47;;;12.80;51.65
6567;BME280;3317;43.994;22.878;2023-02-19T06:19:59;101314.28;;;12.89;51.57
6567;BME280;3317;43.994;22.878;2023-02-19T06:22:27;101318.25;;;12.94;51.63
6567;BME280;3317;43.994;22.878;2023-02-19T06:24:53;101296.25;;;12.88;51.36
6567;BME280;3317;43.994;22.878;2023-02-19T06:27:21;101317.47;;;13.02;51.38
6567;BME280;3317;43.994;22.878;2023-02-19T06:29:48;101326.72;;;13.09;51.03
6567;BME280;3317;43.994;22.878;2023-02-19T06:32:14;101317.38;;;13.12;51.01
6567;BME280;3317;43.994;22.878;2023-02-19T06:34:41;101317.44;;;13.20;50.90
6567;BME280;3317;43.994;22.878;2023-02-19T06:37:09;101316.97;;;13.25;50.70
6567;BME280;3317;43.994;22.878;2023-02-19T06:39:36;101314.72;;;13.38;50.75
6567;BME280;3317;43.994;22.878;2023-02-19T06:42:03;101310.44;;;13.36;50.77
6567;BME280;3317;43.994;22.878;2023-02-19T06:44:30;101309.25;;;13.38;50.86
6567;BME280;3317;43.994;22.878;2023-02-19T06:46:57;101315.50;;;13.49;50.64
6567;BME280;3317;43.994;22.878;2023-02-19T06:49:24;101307.91;;;13.61;50.36
6567;BME280;3317;43.994;22.878;2023-02-19T06:51:51;101313.91;;;13.64;50.43
6567;BME280;3317;43.994;22.878;2023-02-19T06:54:19;101312.88;;;13.65;50.16
6567;BME280;3317;43.994;22.878;2023-02-19T06:56:46;101316.03;;;13.79;49.81
6567;BME280;3317;43.994;22.878;2023-02-19T06:59:15;101313.38;;;13.87;49.33
6567;BME280;3317;43.994;22.878;2023-02-19T07:01:42;101305.22;;;13.96;49.45
6567;BME280;3317;43.994;22.878;2023-02-19T07:04:10;101299.97;;;14.02;49.53
6567;BME280;3317;43.994;22.878;2023-02-19T07:06:38;101303.22;;;14.06;49.38
6567;BME280;3317;43.994;22.878;2023-02-19T07:09:05;101309.28;;;14.26;49.20
6567;BME280;3317;43.994;22.878;2023-02-19T07:11:35;101303.00;;;14.34;49.13
6567;BME280;3317;43.994;22.878;2023-02-19T07:14:05;101294.31;;;14.39;48.58
6567;BME280;3317;43.994;22.878;2023-02-19T07:16:33;101305.81;;;14.50;48.52
6567;BME280;3317;43.994;22.878;2023-02-19T07:19:00;101302.91;;;14.60;48.32
6567;BME280;3317;43.994;22.878;2023-02-19T07:21:28;101307.91;;;14.73;48.34
6567;BME280;3317;43.994;22.878;2023-02-19T07:23:55;101302.31;;;14.83;47.96
6567;BME280;3317;43.994;22.878;2023-02-19T07:26:22;101295.81;;;14.92;47.70
6567;BME280;3317;43.994;22.878;2023-02-19T07:28:51;101311.19;;;15.02;47.63
6567;BME280;3317;43.994;22.878;2023-02-19T07:31:20;101313.41;;;15.15;47.25
6567;BME280;3317;43.994;22.878;2023-02-19T07:33:47;101307.97;;;15.23;46.81
6567;BME280;3317;43.994;22.878;2023-02-19T07:36:16;101324.84;;;15.43;47.16
6567;BME280;3317;43.994;22.878;2023-02-19T07:38:43;101315.78;;;15.59;46.69
6567;BME280;3317;43.994;22.878;2023-02-19T07:41:10;101317.81;;;15.66;46.44
6567;BME280;3317;43.994;22.878;2023-02-19T07:43:38;101301.06;;;15.77;45.78
6567;BME280;3317;43.994;22.878;2023-02-19T07:46:08;101308.22;;;15.86;45.48
6567;BME280;3317;43.994;22.878;2023-02-19T07:48:36;101318.97;;;15.96;45.41
6567;BME280;3317;43.994;22.878;2023-02-19T07:51:04;101304.78;;;16.01;44.85
6567;BME280;3317;43.994;22.878;2023-02-19T07:53:32;101318.56;;;16.16;44.77
6567;BME280;3317;43.994;22.878;2023-02-19T07:56:00;101317.16;;;16.28;44.58
6567;BME280;3317;43.994;22.878;2023-02-19T07:58:28;101307.53;;;16.41;44.12
6567;BME280;3317;43.994;22.878;2023-02-19T08:00:56;101305.59;;;16.50;43.85
6567;BME280;3317;43.994;22.878;2023-02-19T08:03:24;101311.69;;;16.60;43.70
6567;BME280;3317;43.994;22.878;2023-02-19T08:05:50;101304.13;;;16.70;43.56
6567;BME280;3317;43.994;22.878;2023-02-19T08:08:18;101309.84;;;16.84;43.05
6567;BME280;3317;43.994;22.878;2023-02-19T08:10:45;101306.38;;;16.90;43.48
6567;BME280;3317;43.994;22.878;2023-02-19T08:13:29;101303.25;;;17.01;43.62
6567;BME280;3317;43.994;22.878;2023-02-19T08:16:09;101309.13;;;17.13;43.28
6567;BME280;3317;43.994;22.878;2023-02-19T08:18:38;101298.78;;;17.24;43.19
6567;BME280;3317;43.994;22.878;2023-02-19T08:21:05;101293.41;;;17.30;42.38
6567;BME280;3317;43.994;22.878;2023-02-19T08:23:32;101304.19;;;17.32;42.07
6567;BME280;3317;43.994;22.878;2023-02-19T08:25:59;101314.22;;;17.40;42.00
6567;BME280;3317;43.994;22.878;2023-02-19T08:28:27;101307.16;;;17.45;41.88
6567;BME280;3317;43.994;22.878;2023-02-19T08:30:58;101320.75;;;17.54;41.97
6567;BME280;3317;43.994;22.878;2023-02-19T08:33:25;101314.16;;;17.63;41.87
6567;BME280;3317;43.994;22.878;2023-02-19T08:35:53;101304.81;;;17.72;42.03
6567;BME280;3317;43.994;22.878;2023-02-19T08:38:20;101312.00;;;17.73;41.73
6567;BME280;3317;43.994;22.878;2023-02-19T08:40:47;101304.84;;;17.87;41.49
6567;BME280;3317;43.994;22.878;2023-02-19T08:43:15;101292.44;;;17.92;41.60
6567;BME280;3317;43.994;22.878;2023-02-19T08:45:44;101301.63;;;18.14;41.39
6567;BME280;3317;43.994;22.878;2023-02-19T08:48:12;101292.34;;;18.30;41.24
6567;BME280;3317;43.994;22.878;2023-02-19T08:50:39;101311.44;;;18.38;40.74
6567;BME280;3317;43.994;22.878;2023-02-19T08:53:07;101302.53;;;18.51;40.45
6567;BME280;3317;43.994;22.878;2023-02-19T08:55:36;101306.66;;;18.62;40.07
6567;BME280;3317;43.994;22.878;2023-02-19T08:58:03;101302.28;;;18.68;40.27
6567;BME280;3317;43.994;22.878;2023-02-19T09:00:30;101301.00;;;18.85;40.44
6567;BME280;3317;43.994;22.878;2023-02-19T09:02:57;101307.69;;;18.98;40.17
6567;BME280;3317;43.994;22.878;2023-02-19T09:05:24;101304.06;;;18.97;39.17
6567;BME280;3317;43.994;22.878;2023-02-19T09:07:51;101303.34;;;19.04;39.08
6567;BME280;3317;43.994;22.878;2023-02-19T09:10:20;101307.03;;;19.18;39.21
6567;BME280;3317;43.994;22.878;2023-02-19T09:12:47;101303.34;;;19.32;38.49
6567;BME280;3317;43.994;22.878;2023-02-19T09:15:14;101304.50;;;19.45;38.79
6567;BME280;3317;43.994;22.878;2023-02-19T09:17:41;101304.16;;;19.54;38.62
6567;BME280;3317;43.994;22.878;2023-02-19T09:20:08;101295.63;;;19.71;38.28
6567;BME280;3317;43.994;22.878;2023-02-19T09:22:35;101295.06;;;19.82;38.03
6567;BME280;3317;43.994;22.878;2023-02-19T09:25:03;101298.69;;;19.90;37.43
6567;BME280;3317;43.994;22.878;2023-02-19T09:27:31;101290.66;;;19.88;37.11
6567;BME280;3317;43.994;22.878;2023-02-19T09:29:58;101294.50;;;19.94;37.05
6567;BME280;3317;43.994;22.878;2023-02-19T09:32:28;101282.94;;;20.05;37.29
6567;BME280;3317;43.994;22.878;2023-02-19T09:34:55;101281.25;;;20.11;37.48
6567;BME280;3317;43.994;22.878;2023-02-19T09:37:24;101269.91;;;20.21;36.67
6567;BME280;3317;43.994;22.878;2023-02-19T09:39:52;101275.00;;;20.24;36.43
6567;BME280;3317;43.994;22.878;2023-02-19T09:42:22;101274.78;;;20.32;36.99
6567;BME280;3317;43.994;22.878;2023-02-19T09:44:54;101271.66;;;20.42;36.54
6567;BME280;3317;43.994;22.878;2023-02-19T09:47:24;101263.81;;;20.46;36.08
6567;BME280;3317;43.994;22.878;2023-02-19T09:49:54;101263.19;;;20.44;36.22
6567;BME280;3317;43.994;22.878;2023-02-19T09:52:29;101262.13;;;20.45;36.29
6567;BME280;3317;43.994;22.878;2023-02-19T09:55:01;101258.97;;;20.48;36.33
6567;BME280;3317;43.994;22.878;2023-02-19T09:57:30;101259.19;;;20.53;36.14
6567;BME280;3317;43.994;22.878;2023-02-19T10:00:04;101256.25;;;20.61;35.82
6567;BME280;3317;43.994;22.878;2023-02-19T10:02:32;101252.22;;;20.64;35.62
6567;BME280;3317;43.994;22.878;2023-02-19T10:04:59;101246.09;;;20.68;35.78
6567;BME280;3317;43.994;22.878;2023-02-19T10:07:34;101241.88;;;20.73;35.55
6567;BME280;3317;43.994;22.878;2023-02-19T10:10:19;101233.63;;;20.79;36.19
6567;BME280;3317;43.994;22.878;2023-02-19T10:12:51;101224.75;;;20.84;35.71
6567;BME280;3317;43.994;22.878;2023-02-19T10:15:25;101234.06;;;20.83;35.39
6567;BME280;3317;43.994;22.878;2023-02-19T10:17:55;101224.34;;;20.87;35.44
6567;BME280;3317;43.994;22.878;2023-02-19T10:20:24;101214.59;;;20.98;35.58
6567;BME280;3317;43.994;22.878;2023-02-19T10:22:57;101208.22;;;20.98;35.48
6567;BME280;3317;43.994;22.878;2023-02-19T10:25:26;101196.56;;;21.02;35.09
6567;BME280;3317;43.994;22.878;2023-02-19T10:27:53;101199.56;;;21.01;35.33
6567;BME280;3317;43.994;22.878;2023-02-19T10:30:23;101193.81;;;21.09;35.82
6567;BME280;3317;43.994;22.878;2023-02-19T10:32:59;101180.44;;;21.19;35.38
6567;BME280;3317;43.994;22.878;2023-02-19T10:35:27;101154.81;;;21.19;35.39
6567;BME280;3317;43.994;22.878;2023-02-19T10:37:54;101173.00;;;21.33;35.27
6567;BME280;3317;43.994;22.878;2023-02-19T10:40:24;101168.94;;;21.43;34.86
6567;BME280;3317;43.994;22.878;2023-02-19T10:42:53;101167.88;;;21.50;34.54
6567;BME280;3317;43.994;22.878;2023-02-19T10:45:26;101157.25;;;21.54;34.22
6567;BME280;3317;43.994;22.878;2023-02-19T10:47:55;101143.25;;;21.56;34.09
6567;BME280;3317;43.994;22.878;2023-02-19T10:50:25;101149.19;;;21.66;33.95
6567;BME280;3317;43.994;22.878;2023-02-19T10:52:55;101134.34;;;21.67;34.04
6567;BME280;3317;43.994;22.878;2023-02-19T10:55:30;101136.44;;;21.72;34.27
6567;BME280;3317;43.994;22.878;2023-02-19T10:58:20;101123.00;;;21.89;33.84
6567;BME280;3317;43.994;22.878;2023-02-19T11:01:08;101123.66;;;21.84;33.11
6567;BME280;3317;43.994;22.878;2023-02-19T11:03:35;101103.91;;;21.87;33.26
6567;BME280;3317;43.994;22.878;2023-02-19T11:06:04;101104.06;;;21.92;33.14
6567;BME280;3317;43.994;22.878;2023-02-19T11:08:48;101104.94;;;21.93;32.89
6567;BME280;3317;43.994;22.878;2023-02-19T11:11:36;101099.41;;;21.93;32.73
6567;BME280;3317;43.994;22.878;2023-02-19T11:14:13;101097.28;;;21.95;32.51
6567;BME280;3317;43.994;22.878;2023-02-19T11:16:44;101095.94;;;22.04;33.04
6567;BME280;3317;43.994;22.878;2023-02-19T11:19:24;101090.16;;;22.13;32.38
6567;BME280;3317;43.994;22.878;2023-02-19T11:21:52;101086.97;;;22.16;32.46
6567;BME280;3317;43.994;22.878;2023-02-19T11:24:28;101068.22;;;22.25;32.75
6567;BME280;3317;43.994;22.878;2023-02-19T11:26:56;101075.78;;;22.36;32.52
6567;BME280;3317;43.994;22.878;2023-02-19T11:29:24;101065.03;;;22.46;32.40
6567;BME280;3317;43.994;22.878;2023-02-19T11:31:54;101062.50;;;22.52;31.85
6567;BME280;3317;43.994;22.878;2023-02-19T11:34:25;101051.28;;;22.40;32.04
6567;BME280;3317;43.994;22.878;2023-02-19T11:37:08;101058.25;;;22.49;31.62
6567;BME280;3317;43.994;22.878;2023-02-19T11:39:35;101055.06;;;22.45;31.62
6567;BME280;3317;43.994;22.878;2023-02-19T11:42:20;101057.38;;;22.55;31.97
6567;BME280;3317;43.994;22.878;2023-02-19T11:45:20;101056.44;;;22.61;31.70
6567;BME280;3317;43.994;22.878;2023-02-19T11:48:11;101045.59;;;22.67;31.22
6567;BME280;3317;43.994;22.878;2023-02-19T11:50:51;101046.19;;;22.69;31.34
6567;BME280;3317;43.994;22.878;2023-02-19T11:53:24;101046.81;;;22.71;30.98
6567;BME280;3317;43.994;22.878;2023-02-19T11:56:09;101027.09;;;22.67;31.30
6567;BME280;3317;43.994;22.878;2023-02-19T11:58:50;101024.53;;;22.65;30.93
6567;BME280;3317;43.994;22.878;2023-02-19T12:01:24;101019.94;;;22.59;31.04
6567;BME280;3317;43.994;22.878;2023-02-19T12:07:01;101020.72;;;22.67;31.23
6567;BME280;3317;43.994;22.878;2023-02-19T12:09:43;101011.97;;;22.70;31.23
6567;BME280;3317;43.994;22.878;2023-02-19T12:12:22;101005.38;;;22.71;31.08
6567;BME280;3317;43.994;22.878;2023-02-19T12:15:12;100995.41;;;22.70;30.86
6567;BME280;3317;43.994;22.878;2023-02-19T12:17:58;100993.53;;;22.63;30.30
6567;BME280;3317;43.994;22.878;2023-02-19T12:20:34;100990.34;;;22.67;31.02
6567;BME280;3317;43.994;22.878;2023-02-19T12:23:25;100948.94;;;22.41;30.55
6567;BME280;3317;43.994;22.878;2023-02-19T12:26:03;100978.28;;;22.61;30.35
6567;BME280;3317;43.994;22.878;2023-02-19T12:28:47;100975.06;;;22.64;30.24
6567;BME280;3317;43.994;22.878;2023-02-19T12:31:54;100969.00;;;22.55;29.80
6567;BME280;3317;43.994;22.878;2023-02-19T12:34:35;100947.44;;;22.64;30.91
6567;BME280;3317;43.994;22.878;2023-02-19T12:37:15;100958.72;;;22.62;30.25
6567;BME280;3317;43.994;22.878;2023-02-19T12:39:51;100948.59;;;22.56;29.76
6567;BME280;3317;43.994;22.878;2023-02-19T12:42:36;100950.59;;;22.68;30.22
6567;BME280;3317;43.994;22.878;2023-02-19T12:45:15;100936.78;;;22.68;29.49
6567;BME280;3317;43.994;22.878;2023-02-19T12:47:50;100935.41;;;22.58;29.03
6567;BME280;3317;43.994;22.878;2023-02-19T12:50:23;100920.41;;;22.47;29.58
6567;BME280;3317;43.994;22.878;2023-02-19T12:52:56;100922.28;;;22.54;29.57
6567;BME280;3317;43.994;22.878;2023-02-19T12:55:29;100923.56;;;22.51;29.77
6567;BME280;3317;43.994;22.878;2023-02-19T12:58:01;100920.63;;;22.46;29.81
6567;BME280;3317;43.994;22.878;2023-02-19T13:00:31;100911.97;;;22.42;29.95
6567;BME280;3317;43.994;22.878;2023-02-19T13:03:04;100910.84;;;22.50;29.96
6567;BME280;3317;43.994;22.878;2023-02-19T13:05:41;100913.25;;;22.40;29.36
6567;BME280;3317;43.994;22.878;2023-02-19T13:08:15;100908.50;;;22.28;29.21
6567;BME280;3317;43.994;22.878;2023-02-19T13:10:49;100912.84;;;22.17;29.32
6567;BME280;3317;43.994;22.878;2023-02-19T13:13:22;100917.75;;;22.15;29.51
6567;BME280;3317;43.994;22.878;2023-02-19T13:15:54;100919.28;;;22.11;29.78
6567;BME280;3317;43.994;22.878;2023-02-19T13:18:24;100911.00;;;22.11;30.05
6567;BME280;3317;43.994;22.878;2023-02-19T13:20:53;100906.38;;;22.05;29.80
6567;BME280;3317;43.994;22.878;2023-02-19T13:23:25;100896.53;;;21.90;29.92
6567;BME280;3317;43.994;22.878;2023-02-19T13:26:23;100911.81;;;21.93;30.18